Time;durP1;ratioP1;P1;durP2;ratioP2;P2;SDS_P1;SDS_P2;PMS_P1;PMS_P2;Temp;Humidity;BMP_temperature;BMP_pressure;BME280_temperature;BME280_humidity;BME280_pressure;Samples;Min_cycle;Max_cycle;Signal;HPM_P1;HPM_P2
2022/08/04 00:01:33;;;;;;;6.10;4.67;;;;;;;23.80;69.93;97956.88;4209077;28;20733;-83
2022/08/04 00:03:43;;;;;;;7.27;5.13;;;;;;;23.78;70.31;97956.25;4191812;28;20733;-83
2022/08/04 00:05:56;;;;;;;5.30;4.53;;;;;;;23.74;70.29;97942.47;4205876;28;20647;-83
2022/08/04 00:08:07;;;;;;;5.10;4.23;;;;;;;23.70;70.30;97953.69;4189538;28;20714;-83
2022/08/04 00:10:10;;;;;;;4.90;4.40;;;;;;;23.69;70.97;97949.38;4187398;28;20649;-83
2022/08/04 00:12:16;;;;;;;4.87;4.47;;;;;;;23.66;71.07;97955.09;4204855;28;21018;-83
2022/08/04 00:14:21;;;;;;;5.30;4.63;;;;;;;23.66;70.22;97952.41;4206099;28;20637;-83
2022/08/04 00:16:29;;;;;;;6.00;5.10;;;;;;;23.64;70.77;97953.66;4203499;28;21228;-82
2022/08/04 00:18:41;;;;;;;4.77;4.37;;;;;;;23.60;70.88;97950.47;4188863;28;21595;-81
2022/08/04 00:20:45;;;;;;;5.40;4.90;;;;;;;23.58;71.37;97944.53;4221754;28;20640;-82
2022/08/04 00:22:49;;;;;;;8.63;4.80;;;;;;;23.55;70.76;97944.91;4208406;28;20657;-82
2022/08/04 00:24:53;;;;;;;5.77;4.43;;;;;;;23.54;70.53;97937.09;4217459;28;20621;-82
2022/08/04 00:26:57;;;;;;;5.20;4.70;;;;;;;23.52;70.91;97947.13;4206391;28;20648;-82
2022/08/04 00:29:00;;;;;;;4.90;4.50;;;;;;;23.49;71.15;97950.97;4193926;28;21083;-83
2022/08/04 00:31:04;;;;;;;5.00;4.50;;;;;;;23.45;71.20;97948.88;4203318;28;20659;-83
2022/08/04 00:33:10;;;;;;;4.90;4.40;;;;;;;23.40;71.90;97952.09;4207310;28;21180;-82
2022/08/04 00:35:15;;;;;;;6.03;4.70;;;;;;;23.37;71.78;97955.13;4187066;28;20643;-82
2022/08/04 00:37:21;;;;;;;5.30;4.57;;;;;;;23.33;71.83;97953.88;4206864;28;20705;-84
2022/08/04 00:39:25;;;;;;;6.50;4.63;;;;;;;23.30;71.59;97956.91;4204990;28;21209;-85
2022/08/04 00:41:39;;;;;;;5.17;4.63;;;;;;;23.28;71.54;97955.44;4200517;28;21042;-85
2022/08/04 00:44:12;;;;;;;5.10;4.60;;;;;;;23.27;71.90;97959.09;4220009;28;20661;-85
2022/08/04 00:46:44;;;;;;;4.87;4.37;;;;;;;23.22;71.68;97957.00;4190622;28;20755;-82
2022/08/04 00:49:03;;;;;;;4.40;4.00;;;;;;;23.20;71.62;97951.03;4205283;28;20640;-83
2022/08/04 00:51:13;;;;;;;6.00;4.47;;;;;;;23.18;71.95;97952.22;4215579;28;20735;-83
2022/08/04 00:53:23;;;;;;;5.13;4.63;;;;;;;23.12;71.51;97944.16;4208511;28;20624;-82
2022/08/04 00:55:36;;;;;;;4.70;4.30;;;;;;;23.07;71.88;97942.06;4188727;28;20634;-82
2022/08/04 00:57:51;;;;;;;4.60;4.20;;;;;;;23.04;71.83;97942.44;4208477;28;20640;-83
2022/08/04 01:00:06;;;;;;;5.50;4.50;;;;;;;23.02;72.12;97952.44;4192863;28;20641;-83
2022/08/04 01:02:18;;;;;;;4.70;4.17;;;;;;;23.03;72.58;97953.28;4208446;28;20660;-85
2022/08/04 01:04:33;;;;;;;5.33;4.83;;;;;;;23.00;72.39;97943.00;4188701;28;21094;-83
2022/08/04 01:06:39;;;;;;;4.90;4.50;;;;;;;22.96;72.11;97952.38;4189296;28;20765;-83
2022/08/04 01:08:52;;;;;;;4.73;4.27;;;;;;;22.95;71.78;97946.19;4202724;28;20644;-82
2022/08/04 01:11:02;;;;;;;5.00;4.60;;;;;;;22.93;72.48;97950.91;4226767;28;21241;-83
2022/08/04 01:13:17;;;;;;;5.90;4.80;;;;;;;22.90;72.22;97955.75;4207114;28;20661;-83
2022/08/04 01:15:25;;;;;;;4.87;4.47;;;;;;;22.87;72.08;97961.44;4204069;28;20633;-83
2022/08/04 01:17:37;;;;;;;5.40;4.90;;;;;;;22.84;72.76;97956.47;4223752;28;21073;-83
2022/08/04 01:20:02;;;;;;;5.43;4.93;;;;;;;22.78;73.55;97958.03;4225144;27;20652;-84
2022/08/04 01:22:19;;;;;;;4.60;4.20;;;;;;;22.73;73.38;97959.56;4204552;28;21275;-83
2022/08/04 01:24:30;;;;;;;4.90;4.50;;;;;;;22.70;73.31;97959.13;4196496;28;20622;-81
2022/08/04 01:26:44;;;;;;;6.03;4.63;;;;;;;22.66;73.75;97955.16;4208053;28;20641;-81
2022/08/04 01:29:08;;;;;;;4.97;4.57;;;;;;;22.61;73.45;97950.38;4216079;28;20688;-81
2022/08/04 01:31:15;;;;;;;6.73;5.23;;;;;;;22.57;73.99;97945.66;4212655;28;20648;-82
2022/08/04 01:33:20;;;;;;;5.13;4.63;;;;;;;22.53;73.52;97942.50;4222868;28;20626;-82
2022/08/04 01:35:25;;;;;;;4.93;4.43;;;;;;;22.50;73.86;97942.88;4206844;28;20632;-80
2022/08/04 01:37:51;;;;;;;4.90;4.50;;;;;;;22.49;73.87;97948.38;4211575;28;20641;-81
2022/08/04 01:40:00;;;;;;;4.77;4.37;;;;;;;22.47;74.16;97942.41;4209612;28;20640;-81
2022/08/04 01:42:04;;;;;;;4.70;4.30;;;;;;;22.47;73.46;97950.38;4209398;28;20637;-82
2022/08/04 01:44:13;;;;;;;5.10;4.60;;;;;;;22.45;73.74;97945.25;4208790;28;21185;-81
2022/08/04 01:46:17;;;;;;;5.70;4.57;;;;;;;22.44;74.40;97940.94;4193682;28;20654;-81
2022/08/04 01:48:23;;;;;;;5.63;4.53;;;;;;;22.41;74.07;97946.59;4209843;28;20651;-81
2022/08/04 01:50:27;;;;;;;4.70;4.30;;;;;;;22.38;73.40;97943.50;4221347;27;20636;-81
2022/08/04 01:52:31;;;;;;;5.60;4.40;;;;;;;22.34;73.00;97944.84;4209918;28;20634;-80
2022/08/04 01:54:37;;;;;;;4.53;4.13;;;;;;;22.29;73.25;97940.06;4204302;28;20628;-82
2022/08/04 01:56:41;;;;;;;4.70;4.30;;;;;;;22.31;73.23;97939.91;4205053;28;22957;-81
2022/08/04 01:58:44;;;;;;;5.87;4.70;;;;;;;22.28;73.48;97941.09;4188034;28;20637;-80
2022/08/04 02:00:58;;;;;;;6.07;4.30;;;;;;;22.31;73.39;97937.25;4219582;27;21227;-80
2022/08/04 02:03:01;;;;;;;5.63;4.40;;;;;;;22.33;73.34;97935.25;4199481;28;20685;-80
2022/08/04 02:05:05;;;;;;;5.10;4.50;;;;;;;22.31;73.32;97943.41;4201136;28;20737;-80
2022/08/04 02:07:24;;;;;;;8.10;4.67;;;;;;;22.29;73.04;97945.41;4201739;28;20749;-80
2022/08/04 02:09:32;;;;;;;5.00;4.50;;;;;;;22.28;73.17;97935.78;4199638;28;21298;-80
2022/08/04 02:12:03;;;;;;;4.53;4.10;;;;;;;22.25;73.63;97930.84;4200411;28;20640;-80
2022/08/04 02:14:39;;;;;;;4.93;4.47;;;;;;;22.23;73.52;97930.16;4187032;28;20656;-80
2022/08/04 02:16:44;;;;;;;4.80;4.30;;;;;;;22.18;74.09;97921.06;4202922;28;20695;-80
2022/08/04 02:19:00;;;;;;;7.67;4.33;;;;;;;22.15;74.18;97924.09;4218782;28;20630;-81
2022/08/04 02:21:04;;;;;;;5.83;5.13;;;;;;;22.14;74.12;97924.25;4219167;28;20993;-81
2022/08/04 02:23:08;;;;;;;5.30;4.80;;;;;;;22.13;73.84;97922.59;4215501;28;20628;-80
2022/08/04 02:25:12;;;;;;;4.83;4.40;;;;;;;22.10;74.17;97915.84;4203442;28;20632;-80
2022/08/04 02:27:17;;;;;;;9.10;5.13;;;;;;;22.08;73.43;97914.34;4197171;28;20625;-80
2022/08/04 02:29:21;;;;;;;4.80;4.40;;;;;;;22.05;73.81;97918.19;4176681;28;21041;-80
2022/08/04 02:31:28;;;;;;;4.97;4.57;;;;;;;22.02;73.81;97920.38;4182617;28;20748;-81
2022/08/04 02:33:37;;;;;;;5.03;4.63;;;;;;;21.98;74.35;97913.75;4203455;28;20626;-80
2022/08/04 02:35:41;;;;;;;5.13;4.50;;;;;;;21.96;75.07;97921.09;4210822;27;20643;-80
2022/08/04 02:37:47;;;;;;;5.10;4.47;;;;;;;21.94;74.57;97908.00;4194792;28;20660;-80
2022/08/04 02:39:53;;;;;;;5.40;4.90;;;;;;;21.95;74.27;97927.41;4211654;28;21427;-80
2022/08/04 02:41:56;;;;;;;4.80;4.40;;;;;;;21.95;73.51;97919.44;4197522;28;20633;-81
2022/08/04 02:44:01;;;;;;;5.00;4.47;;;;;;;21.92;73.36;97917.13;4178578;28;22094;-80
2022/08/04 02:46:05;;;;;;;5.70;5.10;;;;;;;21.87;74.60;97920.31;4180319;28;20804;-80
2022/08/04 02:48:22;;;;;;;4.90;4.40;;;;;;;21.85;74.38;97918.88;4197281;28;21048;-80
2022/08/04 02:50:35;;;;;;;5.33;4.43;;;;;;;21.83;74.79;97912.91;4214485;28;20721;-81
2022/08/04 02:52:39;;;;;;;5.40;4.90;;;;;;;21.82;73.92;97913.91;4203949;28;20703;-80
2022/08/04 02:54:45;;;;;;;5.70;4.60;;;;;;;21.81;74.41;97913.09;4204855;28;20642;-80
2022/08/04 02:56:52;;;;;;;5.13;4.63;;;;;;;21.81;74.28;97912.25;4217685;27;20641;-80
2022/08/04 02:58:59;;;;;;;5.20;4.70;;;;;;;21.80;74.29;97916.75;4202308;28;20640;-80
2022/08/04 03:01:03;;;;;;;5.30;4.80;;;;;;;21.79;73.46;97924.91;4210345;28;20691;-81
2022/08/04 03:03:18;;;;;;;4.87;4.37;;;;;;;21.78;74.22;97920.56;4184940;28;20648;-80
2022/08/04 03:05:27;;;;;;;5.17;4.70;;;;;;;21.76;74.30;97919.94;4203988;28;20629;-80
2022/08/04 03:07:56;;;;;;;5.33;4.83;;;;;;;21.74;74.34;97914.00;4200096;28;20727;-80
2022/08/04 03:10:26;;;;;;;5.90;5.00;;;;;;;21.74;73.87;97924.63;4205094;28;21304;-80
2022/08/04 03:12:47;;;;;;;5.23;4.73;;;;;;;21.71;73.90;97924.13;4205844;28;20641;-81
2022/08/04 03:15:03;;;;;;;4.50;4.10;;;;;;;21.67;74.47;97915.69;4202921;28;20656;-80
2022/08/04 03:17:27;;;;;;;5.50;4.57;;;;;;;21.65;75.57;97916.88;4221004;27;21265;-80
2022/08/04 03:20:07;;;;;;;6.10;5.10;;;;;;;21.63;73.96;97921.53;4179533;28;20639;-80
2022/08/04 03:22:53;;;;;;;5.10;4.60;;;;;;;21.58;74.22;97922.06;4218444;27;20659;-80
2022/08/04 03:25:41;;;;;;;5.13;4.70;;;;;;;21.54;75.26;97914.63;4202589;28;20721;-80
2022/08/04 03:28:21;;;;;;;5.70;5.20;;;;;;;21.52;74.43;97924.59;4219875;27;20625;-80
2022/08/04 03:30:29;;;;;;;5.23;4.73;;;;;;;21.51;75.31;97925.59;4207660;28;21319;-80
2022/08/04 03:33:08;;;;;;;5.43;4.90;;;;;;;21.49;74.80;97923.13;4206794;28;20632;-80
2022/08/04 03:35:34;;;;;;;7.20;4.97;;;;;;;21.45;74.48;97927.13;4216423;27;21285;-80
2022/08/04 03:38:03;;;;;;;5.40;4.90;;;;;;;21.43;75.16;97925.63;4191488;28;20625;-80
2022/08/04 03:40:36;;;;;;;5.40;4.93;;;;;;;21.41;74.67;97931.09;4188334;28;20626;-80
2022/08/04 03:42:49;;;;;;;5.73;4.63;;;;;;;21.39;75.74;97929.63;4154746;28;20669;-80
2022/08/04 03:45:33;;;;;;;5.97;5.27;;;;;;;21.39;74.54;97933.13;4200481;28;20617;-80
2022/08/04 03:47:51;;;;;;;5.73;4.80;;;;;;;21.38;75.15;97928.81;4201675;28;20673;-80
2022/08/04 03:50:12;;;;;;;5.27;4.77;;;;;;;21.36;76.07;97922.00;4204177;28;21114;-80
2022/08/04 03:55:23;;;;;;;9.10;5.30;;;;;;;21.36;76.18;97938.78;4188766;28;20637;-80
2022/08/04 03:57:37;;;;;;;5.77;5.27;;;;;;;21.34;75.67;97935.44;4205995;28;20739;-80
2022/08/04 03:59:50;;;;;;;6.30;4.80;;;;;;;21.32;75.04;97934.00;4189460;28;21042;-80
2022/08/04 04:02:04;;;;;;;5.50;5.00;;;;;;;21.31;76.07;97935.81;4216399;28;20634;-80
2022/08/04 04:04:26;;;;;;;5.90;5.33;;;;;;;21.32;76.32;97941.97;4204785;28;20620;-80
2022/08/04 04:06:59;;;;;;;5.77;5.27;;;;;;;21.29;77.05;97942.31;4200482;28;20684;-80
2022/08/04 04:09:29;;;;;;;5.80;5.30;;;;;;;21.28;76.78;97941.47;4200230;28;20654;-81
2022/08/04 04:12:11;;;;;;;7.10;5.77;;;;;;;21.28;75.13;97936.16;4217150;28;20627;-82
2022/08/04 04:14:41;;;;;;;6.20;5.60;;;;;;;21.28;76.25;97933.50;4205426;28;20635;-82
2022/08/04 04:17:13;;;;;;;6.43;5.83;;;;;;;21.27;75.57;97933.66;4207282;28;20649;-82
2022/08/04 04:19:28;;;;;;;8.13;6.17;;;;;;;21.27;76.50;97932.84;4187900;28;20641;-82
2022/08/04 04:21:50;;;;;;;7.83;6.03;;;;;;;21.26;76.57;97937.34;4204968;28;20628;-82
2022/08/04 04:24:23;;;;;;;6.67;6.07;;;;;;;21.26;75.28;97934.69;4201624;28;21230;-82
2022/08/04 04:26:40;;;;;;;6.77;5.87;;;;;;;21.26;76.29;97936.50;4220039;28;20606;-82
2022/08/04 04:28:56;;;;;;;8.10;6.43;;;;;;;21.28;76.81;97938.00;4200917;28;20661;-82
2022/08/04 04:31:37;;;;;;;7.13;6.43;;;;;;;21.28;76.24;97930.84;4189517;28;20638;-82
2022/08/04 04:33:53;;;;;;;7.03;5.70;;;;;;;21.28;76.52;97936.16;4210893;28;21104;-82
2022/08/04 04:36:03;;;;;;;6.37;5.77;;;;;;;21.31;75.56;97935.81;4190627;28;20628;-82
2022/08/04 04:38:19;;;;;;;7.07;6.47;;;;;;;21.33;76.76;97933.81;4201693;28;21295;-82
2022/08/04 04:40:31;;;;;;;12.90;6.13;;;;;;;21.37;76.04;97942.25;4189692;28;20704;-82
2022/08/04 04:42:43;;;;;;;6.80;6.20;;;;;;;21.36;75.72;97938.78;4192363;28;20638;-82
2022/08/04 04:45:04;;;;;;;7.43;6.13;;;;;;;21.39;75.53;97938.44;4207577;28;20623;-82
2022/08/04 04:47:13;;;;;;;6.67;6.00;;;;;;;21.44;75.99;97936.06;4194329;28;20666;-82
2022/08/04 04:49:25;;;;;;;7.10;6.40;;;;;;;21.47;75.82;97942.88;4194466;28;20750;-82
2022/08/04 04:51:34;;;;;;;6.70;6.10;;;;;;;21.50;76.24;97946.03;4210556;28;20716;-82
2022/08/04 04:53:45;;;;;;;7.50;6.40;;;;;;;21.53;75.84;97945.66;4207006;28;20624;-82
2022/08/04 04:55:57;;;;;;;6.47;5.63;;;;;;;21.58;75.73;97948.63;4218833;27;20726;-80
2022/08/04 04:58:01;;;;;;;6.47;5.87;;;;;;;21.59;74.90;97949.44;4218101;27;20652;-82
2022/08/04 05:00:07;;;;;;;6.03;5.43;;;;;;;21.62;75.87;97949.94;4203038;28;20635;-84
2022/08/04 05:03:00;;;;;;;7.30;6.10;;;;;;;21.65;75.07;97949.56;4202376;28;20634;-81
2022/08/04 05:05:22;;;;;;;6.30;5.70;;;;;;;21.70;75.07;97951.69;4201226;28;20634;-85
2022/08/04 05:07:51;;;;;;;6.50;5.90;;;;;;;21.73;75.43;97948.69;4186479;28;20680;-83
2022/08/04 05:10:03;;;;;;;7.00;6.40;;;;;;;21.76;74.62;97951.00;4220627;27;20667;-83
2022/08/04 05:12:18;;;;;;;7.50;6.80;;;;;;;21.80;75.20;97955.78;4220511;28;21169;-83
2022/08/04 05:14:44;;;;;;;6.57;5.87;;;;;;;21.83;75.08;97955.41;4187935;28;21296;-83
2022/08/04 05:16:54;;;;;;;7.10;6.40;;;;;;;21.88;74.65;97955.72;4203308;28;20681;-83
2022/08/04 05:19:10;;;;;;;6.70;6.10;;;;;;;21.89;73.88;97960.00;4189794;28;20644;-83
2022/08/04 05:21:25;;;;;;;7.10;6.43;;;;;;;21.94;75.50;97950.50;4221394;28;20628;-83
2022/08/04 05:23:29;;;;;;;7.00;6.33;;;;;;;22.01;74.60;97961.22;4206874;28;20622;-83
2022/08/04 05:25:35;;;;;;;8.07;5.90;;;;;;;22.05;74.10;97967.84;4206223;28;20640;-83
2022/08/04 05:27:40;;;;;;;7.57;6.23;;;;;;;22.11;74.46;97957.31;4196384;28;20670;-83
2022/08/04 05:29:49;;;;;;;9.70;6.37;;;;;;;22.15;74.47;97955.97;4207665;28;21025;-82
2022/08/04 05:31:54;;;;;;;7.27;6.57;;;;;;;22.23;74.15;97963.91;4183990;28;20717;-84
2022/08/04 05:34:02;;;;;;;6.63;5.90;;;;;;;22.29;74.45;97964.00;4207769;28;20633;-82
2022/08/04 05:36:08;;;;;;;6.70;5.93;;;;;;;22.41;74.34;97967.88;4208636;28;20689;-82
2022/08/04 05:38:27;;;;;;;6.47;5.87;;;;;;;22.65;74.42;97969.47;4190693;28;21292;-82
2022/08/04 05:40:31;;;;;;;8.37;6.70;;;;;;;22.89;73.48;97962.06;4208882;28;20620;-82
2022/08/04 05:42:37;;;;;;;7.67;6.40;;;;;;;23.18;72.57;97967.38;4205459;28;21250;-82
2022/08/04 05:44:42;;;;;;;8.60;7.27;;;;;;;23.46;71.39;97975.31;4192165;28;20630;-82
2022/08/04 05:46:55;;;;;;;8.90;7.10;;;;;;;23.74;70.61;97977.13;4206021;28;20633;-82
2022/08/04 05:48:58;;;;;;;7.30;6.63;;;;;;;24.02;71.07;97979.84;4193735;28;20632;-82
2022/08/04 05:51:01;;;;;;;8.17;6.70;;;;;;;24.26;69.33;97975.75;4206466;28;21246;-82
2022/08/04 05:53:05;;;;;;;9.63;6.80;;;;;;;24.53;68.67;97982.19;4222073;27;20635;-82
2022/08/04 05:55:11;;;;;;;8.67;6.30;;;;;;;24.81;67.73;97975.81;4202021;28;20674;-82
2022/08/04 05:57:35;;;;;;;7.73;6.93;;;;;;;25.09;67.66;97969.44;4189536;28;20649;-82
2022/08/04 05:59:39;;;;;;;7.50;6.50;;;;;;;25.34;67.02;97978.59;4200041;28;21214;-80
2022/08/04 06:01:43;;;;;;;15.93;7.00;;;;;;;25.55;65.13;97981.97;4202407;28;20641;-82
2022/08/04 06:04:00;;;;;;;10.53;6.60;;;;;;;25.74;64.94;97975.88;4192994;28;20652;-82
2022/08/04 06:06:04;;;;;;;6.60;5.90;;;;;;;25.99;65.73;97983.16;4206186;28;20645;-82
2022/08/04 06:08:07;;;;;;;12.77;6.70;;;;;;;26.27;65.11;97984.66;4202303;28;20641;-82
2022/08/04 06:10:17;;;;;;;6.77;5.53;;;;;;;26.54;63.29;97978.31;4199761;28;20764;-82
2022/08/04 06:12:23;;;;;;;7.37;5.77;;;;;;;26.74;63.32;97977.22;4196389;28;22541;-83
2022/08/04 06:14:27;;;;;;;6.70;6.00;;;;;;;26.94;62.99;97982.59;4202500;28;20630;-83
2022/08/04 06:16:36;;;;;;;7.57;5.60;;;;;;;27.13;62.90;97983.38;4209260;28;20648;-82
2022/08/04 06:18:40;;;;;;;7.97;5.70;;;;;;;27.34;61.67;97979.59;4212234;28;20622;-82
2022/08/04 06:21:04;;;;;;;14.70;7.00;;;;;;;27.51;61.50;97975.44;4226027;27;20626;-83
2022/08/04 06:23:19;;;;;;;8.73;5.83;;;;;;;27.75;61.87;97976.34;4195920;28;20626;-83
2022/08/04 06:25:26;;;;;;;6.43;5.57;;;;;;;27.98;62.21;97978.47;4207721;28;20627;-83
2022/08/04 06:27:31;;;;;;;5.10;4.63;;;;;;;28.18;61.35;97983.53;4228384;28;20626;-83
2022/08/04 06:29:37;;;;;;;7.60;5.83;;;;;;;28.38;60.95;97978.84;4225349;28;21061;-83
2022/08/04 06:31:45;;;;;;;8.27;5.90;;;;;;;28.59;60.52;97978.47;4211624;28;20635;-82
2022/08/04 06:34:10;;;;;;;6.33;5.23;;;;;;;28.77;61.19;97983.94;4193476;28;20675;-83
2022/08/04 06:36:13;;;;;;;9.87;5.20;;;;;;;28.99;59.14;97981.44;4191086;28;20670;-83
2022/08/04 06:38:18;;;;;;;6.43;5.43;;;;;;;29.19;60.26;97982.03;4225537;28;20638;-83
2022/08/04 06:40:25;;;;;;;8.57;5.10;;;;;;;29.33;58.32;97982.75;4209845;28;20631;-83
2022/08/04 06:42:35;;;;;;;23.00;7.20;;;;;;;29.51;58.79;97984.41;4226404;28;20683;-83
2022/08/04 06:44:39;;;;;;;8.33;5.10;;;;;;;29.67;58.64;97978.38;4211491;28;21212;-83
2022/08/04 06:46:43;;;;;;;7.03;5.30;;;;;;;29.86;57.06;97984.56;4210629;28;20731;-83
2022/08/04 06:48:46;;;;;;;6.10;5.50;;;;;;;30.01;57.74;97981.25;4194732;28;20685;-83
2022/08/04 06:50:50;;;;;;;5.93;5.13;;;;;;;30.24;56.84;97986.72;4195679;28;20755;-83
2022/08/04 06:53:14;;;;;;;5.40;4.90;;;;;;;30.48;57.75;97991.13;4211524;28;20726;-83
2022/08/04 06:55:17;;;;;;;6.00;5.40;;;;;;;30.65;56.42;97984.00;4193431;28;20630;-84
2022/08/04 06:57:23;;;;;;;6.27;5.10;;;;;;;30.88;56.70;97994.84;4205926;27;20651;-83
2022/08/04 06:59:27;;;;;;;5.60;4.80;;;;;;;31.10;56.57;97992.13;4199133;28;20684;-83
2022/08/04 07:01:38;;;;;;;6.90;5.20;;;;;;;31.28;56.16;97994.69;4203184;28;21157;-82
2022/08/04 07:03:41;;;;;;;8.53;5.80;;;;;;;31.38;54.23;97993.03;4215890;27;20651;-83
2022/08/04 07:05:46;;;;;;;8.40;4.50;;;;;;;31.59;54.87;97994.31;4184477;28;20628;-83
2022/08/04 07:07:49;;;;;;;12.10;5.63;;;;;;;31.74;54.15;97989.22;4180348;28;21039;-83
2022/08/04 07:10:00;;;;;;;6.70;5.10;;;;;;;31.96;53.62;97991.06;4200098;28;20660;-83
2022/08/04 07:12:05;;;;;;;5.33;4.10;;;;;;;32.18;57.40;97987.44;4215910;28;20722;-83
2022/08/04 07:14:10;;;;;;;5.03;4.00;;;;;;;32.33;54.80;97984.19;4184386;28;21430;-82
2022/08/04 07:16:14;;;;;;;4.33;3.83;;;;;;;32.44;54.28;97982.25;4220062;28;21007;-83
2022/08/04 07:18:18;;;;;;;4.17;3.70;;;;;;;32.64;53.45;97981.78;4184943;28;20670;-83
2022/08/04 07:20:21;;;;;;;4.83;4.10;;;;;;;32.85;54.17;97979.97;4185399;28;21204;-83
2022/08/04 07:22:38;;;;;;;4.97;3.80;;;;;;;33.06;53.25;97983.81;4187426;28;20684;-83
2022/08/04 07:24:42;;;;;;;6.40;4.63;;;;;;;33.25;53.09;97977.88;4185949;28;20645;-83
2022/08/04 07:26:50;;;;;;;3.83;3.30;;;;;;;33.41;50.76;97977.03;4199030;28;20986;-84
2022/08/04 07:28:53;;;;;;;3.60;3.30;;;;;;;33.57;50.33;97981.59;4200776;28;20631;-83
2022/08/04 07:30:58;;;;;;;3.53;3.23;;;;;;;33.73;50.99;97984.22;4214568;28;20642;-83
2022/08/04 07:33:01;;;;;;;5.53;3.40;;;;;;;33.83;49.54;97982.47;4197756;28;20631;-83
2022/08/04 07:35:06;;;;;;;6.23;4.00;;;;;;;33.85;49.73;97976.78;4210456;27;20625;-83
2022/08/04 07:37:10;;;;;;;3.73;3.40;;;;;;;34.01;50.26;97975.91;4201876;28;20762;-82
2022/08/04 07:39:13;;;;;;;5.33;3.67;;;;;;;34.28;49.17;97987.56;4215768;28;20638;-83
2022/08/04 07:41:31;;;;;;;3.63;3.33;;;;;;;34.48;49.18;97980.50;4198239;28;20643;-83
2022/08/04 07:43:38;;;;;;;4.23;3.30;;;;;;;34.56;48.95;97985.44;4199362;28;20642;-83
2022/08/04 07:45:41;;;;;;;3.97;3.43;;;;;;;34.63;48.64;97983.34;4202083;28;20742;-83
2022/08/04 07:47:46;;;;;;;3.80;3.40;;;;;;;34.63;48.16;97977.91;4199729;28;21240;-83
2022/08/04 07:50:09;;;;;;;3.77;3.30;;;;;;;34.77;48.62;97982.63;4184742;28;20685;-83
2022/08/04 07:52:13;;;;;;;3.63;3.20;;;;;;;34.94;47.66;97977.91;4200153;28;20712;-83
2022/08/04 07:54:17;;;;;;;4.00;3.23;;;;;;;35.15;46.59;97980.47;4212677;28;20688;-82
2022/08/04 07:56:21;;;;;;;3.57;2.90;;;;;;;35.24;48.41;97970.75;4200575;28;20655;-83
2022/08/04 07:58:27;;;;;;;4.00;3.00;;;;;;;35.45;47.87;97977.97;4195402;28;20827;-83
2022/08/04 08:00:32;;;;;;;3.10;2.53;;;;;;;35.67;47.49;97975.91;4196111;28;21088;-83
2022/08/04 08:02:37;;;;;;;3.77;2.70;;;;;;;35.78;46.78;97970.25;4219450;28;22442;-83
2022/08/04 08:04:43;;;;;;;3.00;2.70;;;;;;;35.84;46.85;97970.03;4205601;28;21027;-84
2022/08/04 08:06:46;;;;;;;2.80;2.30;;;;;;;35.99;46.55;97970.06;4203764;28;20647;-83
2022/08/04 08:08:49;;;;;;;2.70;2.50;;;;;;;36.15;45.20;97965.50;4218925;28;20633;-83
2022/08/04 08:10:53;;;;;;;3.93;2.93;;;;;;;36.30;44.67;97967.19;4185383;28;20631;-84
2022/08/04 08:12:57;;;;;;;3.90;2.30;;;;;;;36.45;43.47;97964.47;4206420;28;20643;-83
2022/08/04 08:15:00;;;;;;;3.30;2.17;;;;;;;36.58;43.77;97963.94;4199114;28;21115;-83
2022/08/04 08:17:04;;;;;;;2.70;2.20;;;;;;;36.72;44.35;97959.63;4203287;28;21201;-83
2022/08/04 08:19:08;;;;;;;4.10;2.90;;;;;;;36.82;43.31;97968.59;4215795;28;21208;-83
2022/08/04 08:21:15;;;;;;;2.83;2.60;;;;;;;36.90;42.76;97959.06;4226161;28;21243;-81
2022/08/04 08:23:18;;;;;;;3.60;2.30;;;;;;;37.05;43.08;97957.13;4219934;28;20642;-81
2022/08/04 08:25:23;;;;;;;2.50;2.30;;;;;;;37.23;43.68;97959.31;4190227;28;20652;-81
2022/08/04 08:27:27;;;;;;;3.10;2.20;;;;;;;37.36;43.65;97955.97;4217667;28;21217;-82
2022/08/04 08:29:30;;;;;;;5.63;2.50;;;;;;;37.45;42.74;97959.78;4204502;28;20623;-81
2022/08/04 08:31:33;;;;;;;3.30;2.43;;;;;;;37.54;41.78;97960.84;4203424;28;20656;-82
2022/08/04 08:33:57;;;;;;;2.63;2.10;;;;;;;37.59;43.02;97963.53;4208065;28;20627;-82
2022/08/04 08:36:04;;;;;;;4.90;2.50;;;;;;;37.62;43.28;97955.66;4188512;28;20635;-82
2022/08/04 08:38:11;;;;;;;2.43;2.23;;;;;;;37.70;41.96;97959.72;4203820;28;20668;-82
2022/08/04 08:40:29;;;;;;;3.00;2.23;;;;;;;37.73;42.66;97949.06;4186347;28;21064;-82
2022/08/04 08:43:10;;;;;;;2.40;2.20;;;;;;;37.86;41.77;97957.44;4203662;28;20631;-82
2022/08/04 08:46:01;;;;;;;2.50;2.30;;;;;;;37.94;42.36;97958.78;4202907;28;20631;-82
2022/08/04 08:48:17;;;;;;;3.03;2.40;;;;;;;38.06;42.53;97959.28;4168971;28;22836;-82
2022/08/04 08:50:44;;;;;;;4.13;2.13;;;;;;;38.08;42.79;97952.44;4192051;28;20838;-82
2022/08/04 08:53:06;;;;;;;2.67;2.47;;;;;;;38.14;42.35;97962.22;4200438;28;20718;-82
2022/08/04 08:55:23;;;;;;;3.23;2.57;;;;;;;38.15;41.82;97954.88;4204207;28;21055;-82
2022/08/04 08:57:40;;;;;;;2.60;2.40;;;;;;;38.13;41.61;97959.78;4182378;28;20751;-81
2022/08/04 09:00:10;;;;;;;2.70;2.50;;;;;;;38.14;42.65;97959.50;4187270;28;20643;-82
2022/08/04 09:02:28;;;;;;;3.07;2.40;;;;;;;38.23;42.57;97964.06;4185239;28;20711;-82
2022/08/04 09:05:10;;;;;;;3.37;2.80;;;;;;;38.27;42.85;97954.22;4212571;28;20638;-82
2022/08/04 09:07:51;;;;;;;2.63;2.23;;;;;;;38.35;42.09;97961.81;4186070;28;21502;-82
2022/08/04 09:10:06;;;;;;;2.63;2.40;;;;;;;38.37;42.28;97961.50;4202340;28;20638;-82
2022/08/04 09:12:15;;;;;;;2.53;2.33;;;;;;;38.44;42.17;97951.91;4200059;28;20651;-82
2022/08/04 09:14:33;;;;;;;2.70;2.50;;;;;;;38.54;42.10;97959.25;4203466;28;20707;-82
2022/08/04 09:16:39;;;;;;;2.47;2.27;;;;;;;38.60;42.28;97955.34;4218709;28;20629;-82
2022/08/04 09:18:47;;;;;;;3.17;2.73;;;;;;;38.60;42.00;97956.19;4204505;28;20622;-82
2022/08/04 09:20:58;;;;;;;3.03;2.73;;;;;;;38.51;41.82;97957.09;4203744;28;20671;-82
2022/08/04 09:23:09;;;;;;;3.33;2.43;;;;;;;38.43;41.95;97949.47;4204082;28;20623;-82
2022/08/04 09:25:15;;;;;;;2.57;2.37;;;;;;;38.36;42.55;97949.00;4202161;28;20638;-82
2022/08/04 09:27:23;;;;;;;3.30;2.33;;;;;;;38.37;41.34;97950.59;4197701;28;20640;-82
2022/08/04 09:29:33;;;;;;;2.70;2.50;;;;;;;38.35;42.50;97947.34;4213021;28;20638;-82
2022/08/04 09:31:41;;;;;;;3.60;2.53;;;;;;;38.34;42.41;97953.91;4201107;28;20692;-82
2022/08/04 09:34:10;;;;;;;2.60;2.40;;;;;;;38.38;41.05;97950.31;4217740;28;20638;-82
2022/08/04 09:36:22;;;;;;;3.10;2.80;;;;;;;38.42;41.32;97947.84;4208426;28;20691;-83
2022/08/04 09:38:34;;;;;;;2.43;2.23;;;;;;;38.48;42.39;97949.47;4227412;28;21256;-82
2022/08/04 09:40:42;;;;;;;3.80;2.50;;;;;;;38.60;42.39;97958.09;4188477;28;20667;-82
2022/08/04 09:43:15;;;;;;;2.47;2.27;;;;;;;38.63;41.49;97952.91;4222670;27;20630;-82
2022/08/04 09:45:27;;;;;;;5.77;3.00;;;;;;;38.43;40.95;97947.56;4218544;27;20627;-82
2022/08/04 09:47:49;;;;;;;4.00;2.70;;;;;;;38.32;41.21;97942.47;4200855;28;21082;-82
2022/08/04 09:49:57;;;;;;;2.60;2.40;;;;;;;38.34;41.04;97941.09;4220375;28;20644;-82
2022/08/04 09:52:08;;;;;;;2.83;2.60;;;;;;;38.35;42.66;97931.78;4209001;28;20682;-82
2022/08/04 09:54:15;;;;;;;4.73;2.60;;;;;;;38.43;41.58;97933.09;4217434;28;20659;-82
2022/08/04 09:56:38;;;;;;;3.40;2.80;;;;;;;38.46;41.86;97944.31;4204532;28;20630;-82
2022/08/04 09:58:52;;;;;;;5.07;2.93;;;;;;;38.42;40.75;97932.28;4207161;28;20724;-82
2022/08/04 10:01:01;;;;;;;3.47;2.63;;;;;;;38.33;41.19;97936.72;4215325;27;20633;-83
2022/08/04 10:03:04;;;;;;;3.00;2.70;;;;;;;38.38;42.71;97930.41;4200424;28;20638;-82
2022/08/04 10:05:14;;;;;;;3.50;2.70;;;;;;;38.40;41.86;97933.66;4187794;28;20699;-82
2022/08/04 10:07:29;;;;;;;2.77;2.47;;;;;;;38.43;41.65;97920.28;4204211;28;20670;-82
2022/08/04 10:09:47;;;;;;;2.83;2.53;;;;;;;38.47;41.20;97923.28;4196992;28;20704;-82
2022/08/04 10:11:59;;;;;;;3.70;2.80;;;;;;;38.46;41.61;97921.66;4205387;28;20733;-82
2022/08/04 10:14:09;;;;;;;2.87;2.67;;;;;;;38.47;42.05;97920.56;4207844;28;20755;-82
2022/08/04 10:16:29;;;;;;;2.93;2.60;;;;;;;38.54;42.97;97915.59;4222096;27;20637;-82
2022/08/04 10:18:49;;;;;;;2.60;2.40;;;;;;;38.60;41.45;97918.00;4206126;28;20659;-82
2022/08/04 10:21:01;;;;;;;3.70;3.40;;;;;;;38.61;41.65;97911.41;4221912;27;20745;-82
2022/08/04 10:23:23;;;;;;;3.07;2.50;;;;;;;38.58;41.75;97914.75;4213228;28;20631;-82
2022/08/04 10:25:39;;;;;;;3.37;3.07;;;;;;;38.54;41.37;97912.88;4199083;28;20627;-82
2022/08/04 10:28:06;;;;;;;3.13;2.83;;;;;;;38.58;42.26;97911.19;4202473;28;20797;-82